Time;durP1;ratioP1;P1;durP2;ratioP2;P2;SDS_P1;SDS_P2;PMS_P1;PMS_P2;Temp;Humidity;BMP_temperature;BMP_pressure;BME280_temperature;BME280_humidity;BME280_pressure;Samples;Min_cycle;Max_cycle;Signal;HPM_P1;HPM_P2
2022/07/16 00:01:36;;;;;;;10.53;8.20;;;;;;;18.88;69.09;100549.64;1672642;86;21271;-57
2022/07/16 00:04:41;;;;;;;9.58;8.30;;;;;;;18.87;69.17;100549.31;1672678;86;21220;-57
2022/07/16 00:07:47;;;;;;;10.43;8.05;;;;;;;18.84;69.20;100551.16;1672741;86;21433;-57
2022/07/16 00:10:53;;;;;;;12.82;8.20;;;;;;;18.80;69.26;100545.76;1672632;86;21200;-58
2022/07/16 00:13:59;;;;;;;10.45;8.00;;;;;;;18.75;69.32;100540.03;1672798;86;21341;-57
2022/07/16 00:17:07;;;;;;;13.10;7.70;;;;;;;18.70;69.35;100546.78;1672661;86;21220;-57
2022/07/16 00:20:14;;;;;;;9.25;7.47;;;;;;;18.64;69.40;100546.83;1672554;86;21251;-58
2022/07/16 00:23:20;;;;;;;10.95;7.67;;;;;;;18.57;69.49;100546.01;1674026;84;21361;-58
2022/07/16 00:26:26;;;;;;;10.00;7.70;;;;;;;18.53;69.57;100553.09;1723057;83;21261;-55
2022/07/16 00:29:32;;;;;;;10.38;7.62;;;;;;;18.48;69.64;100550.13;1720471;83;21209;-57
2022/07/16 00:32:37;;;;;;;15.32;8.63;;;;;;;18.45;69.75;100547.80;1725515;83;21235;-56
2022/07/16 00:35:43;;;;;;;14.13;8.10;;;;;;;18.43;69.81;100554.10;1722377;83;21226;-54
2022/07/16 00:38:50;;;;;;;14.58;8.05;;;;;;;18.40;69.84;100551.25;1699228;83;21196;-56
2022/07/16 00:41:57;;;;;;;11.65;7.55;;;;;;;18.39;69.92;100555.11;1724918;83;21249;-57
2022/07/16 00:45:04;;;;;;;13.20;7.47;;;;;;;18.36;69.99;100556.88;1725664;83;21195;-56
2022/07/16 00:48:12;;;;;;;11.97;7.53;;;;;;;18.34;70.03;100556.80;1722250;83;21218;-57
2022/07/16 00:51:19;;;;;;;10.90;7.00;;;;;;;18.27;70.08;100559.60;1725560;83;21346;-56
2022/07/16 00:54:26;;;;;;;13.48;7.17;;;;;;;18.25;70.13;100561.73;1722540;83;21213;-55
2022/07/16 00:57:32;;;;;;;10.43;6.50;;;;;;;18.20;70.15;100567.13;1699059;83;21230;-57
2022/07/16 01:00:37;;;;;;;10.60;6.80;;;;;;;18.15;70.19;100561.38;1722485;83;21209;-55
2022/07/16 01:03:44;;;;;;;9.33;6.80;;;;;;;18.11;70.25;100566.20;1725472;83;21302;-55
2022/07/16 01:06:52;;;;;;;9.60;5.97;;;;;;;18.06;70.33;100552.98;1722396;83;21273;-56
2022/07/16 01:09:57;;;;;;;8.70;6.15;;;;;;;18.03;70.37;100560.91;1719064;83;21263;-55
2022/07/16 01:13:06;;;;;;;8.00;6.47;;;;;;;17.98;70.41;100559.33;1722350;83;21225;-57
2022/07/16 01:16:14;;;;;;;8.50;6.25;;;;;;;17.89;70.40;100562.34;1725446;83;21227;-57
2022/07/16 01:19:21;;;;;;;6.50;5.45;;;;;;;17.82;70.50;100565.66;1722435;83;21202;-55
2022/07/16 01:22:28;;;;;;;11.80;6.47;;;;;;;17.75;70.54;100564.84;1725409;83;21232;-56
2022/07/16 01:25:35;;;;;;;10.93;6.00;;;;;;;17.68;70.64;100564.00;1717041;81;21238;-55
2022/07/16 01:28:41;;;;;;;12.03;5.70;;;;;;;17.62;70.67;100562.11;1703569;83;21191;-55
2022/07/16 01:31:47;;;;;;;6.50;5.58;;;;;;;17.55;70.74;100569.56;1695972;84;21222;-56
2022/07/16 01:34:55;;;;;;;11.00;6.15;;;;;;;17.51;70.83;100576.61;1696067;84;21372;-55
2022/07/16 01:38:01;;;;;;;12.07;6.30;;;;;;;17.45;70.90;100573.85;1696060;84;21274;-56
2022/07/16 01:41:07;;;;;;;8.93;5.28;;;;;;;17.42;71.03;100566.81;1695915;84;21234;-56
2022/07/16 01:44:13;;;;;;;9.40;6.00;;;;;;;17.41;71.07;100575.33;1676588;84;21325;-56
2022/07/16 01:47:21;;;;;;;9.20;5.80;;;;;;;17.40;71.11;100570.31;1695975;84;21210;-56
2022/07/16 01:50:30;;;;;;;9.08;5.55;;;;;;;17.40;71.16;100575.86;1733628;82;21253;-57
2022/07/16 01:53:38;;;;;;;10.63;5.50;;;;;;;17.41;71.21;100580.31;1733466;82;21369;-56
2022/07/16 01:56:45;;;;;;;6.97;5.72;;;;;;;17.42;71.27;100585.33;1733919;82;21379;-56
2022/07/16 01:59:50;;;;;;;8.33;5.30;;;;;;;17.43;71.29;100586.49;1733813;82;21179;-56
2022/07/16 02:03:00;;;;;;;7.53;5.80;;;;;;;17.48;71.39;100592.27;1733286;82;21227;-55
2022/07/16 02:06:07;;;;;;;7.92;5.35;;;;;;;17.48;71.36;100596.95;1733227;83;21202;-57
2022/07/16 02:09:13;;;;;;;11.80;5.85;;;;;;;17.48;71.42;100602.48;1733838;82;21222;-56
2022/07/16 02:12:22;;;;;;;8.98;5.62;;;;;;;17.49;71.49;100607.80;1733296;83;21230;-58
2022/07/16 02:15:21;;;;;;;6.87;5.42;;;;;;;17.45;71.43;100598.77;1733652;82;21203;-56
2022/07/16 02:18:27;;;;;;;8.35;5.47;;;;;;;17.42;71.49;100600.55;1733446;82;21368;-54
2022/07/16 02:21:34;;;;;;;8.95;6.15;;;;;;;17.38;71.46;100608.42;1743723;81;21217;-54
2022/07/16 02:24:42;;;;;;;9.73;6.20;;;;;;;17.30;71.47;100603.11;1695597;84;21194;-54
2022/07/16 02:28:06;;;;;;;6.90;5.97;;;;;;;17.26;71.53;100612.05;1688545;83;21245;-55
2022/07/16 02:31:13;;;;;;;8.30;6.33;;;;;;;17.21;71.59;100606.30;1685162;85;21277;-54
2022/07/16 02:34:20;;;;;;;7.47;6.60;;;;;;;17.21;71.75;100607.16;1656045;86;21268;-55
2022/07/16 02:37:27;;;;;;;11.10;6.30;;;;;;;17.25;71.82;100613.13;1656051;86;21403;-56
2022/07/16 02:40:34;;;;;;;10.60;6.53;;;;;;;17.26;71.89;100616.20;1656137;86;21379;-55
2022/07/16 02:43:39;;;;;;;9.63;6.80;;;;;;;17.25;71.92;100614.52;1656033;86;21245;-56
2022/07/16 02:46:48;;;;;;;10.20;6.85;;;;;;;17.29;72.00;100615.25;1656042;86;21304;-54
2022/07/16 02:49:57;;;;;;;8.90;6.65;;;;;;;17.31;72.00;100625.59;1656076;86;21220;-56
2022/07/16 02:53:04;;;;;;;7.35;6.58;;;;;;;17.33;72.05;100628.14;1656018;86;21229;-53
2022/07/16 02:56:10;;;;;;;9.05;6.40;;;;;;;17.32;72.02;100636.09;1656061;86;21244;-57
2022/07/16 02:59:21;;;;;;;9.98;7.62;;;;;;;17.31;72.04;100628.88;1656139;86;21395;-55
2022/07/16 03:02:29;;;;;;;14.93;7.70;;;;;;;17.31;72.10;100629.73;1656036;86;21288;-55
2022/07/16 03:05:37;;;;;;;10.60;7.17;;;;;;;17.29;72.10;100628.23;1656099;86;21225;-55
2022/07/16 03:08:42;;;;;;;11.12;6.85;;;;;;;17.24;72.10;100633.02;1648108;86;21213;-55
2022/07/16 03:11:50;;;;;;;9.35;6.83;;;;;;;17.21;72.10;100632.06;1655129;86;21240;-54
2022/07/16 03:14:56;;;;;;;11.88;7.62;;;;;;;17.19;72.13;100637.47;1656121;86;21197;-55
2022/07/16 03:18:05;;;;;;;7.85;7.00;;;;;;;17.20;72.19;100640.58;1655886;86;21276;-55
2022/07/16 03:21:11;;;;;;;9.23;7.10;;;;;;;17.20;72.23;100641.97;1656097;86;21260;-56
2022/07/16 03:24:20;;;;;;;9.78;7.35;;;;;;;17.19;72.26;100652.69;1655989;86;21781;-56
2022/07/16 03:27:26;;;;;;;8.35;6.90;;;;;;;17.17;72.26;100646.54;1650916;82;21229;-56
2022/07/16 03:30:33;;;;;;;8.55;7.22;;;;;;;17.14;72.28;100645.59;1722144;83;21232;-57
2022/07/16 03:33:42;;;;;;;11.48;8.08;;;;;;;17.11;72.29;100648.23;1723518;82;21201;-56
2022/07/16 03:36:48;;;;;;;9.93;7.12;;;;;;;17.10;72.31;100641.52;1726302;82;21635;-57
2022/07/16 03:39:55;;;;;;;9.98;8.13;;;;;;;17.07;72.32;100646.09;1723192;82;21233;-55
2022/07/16 03:43:02;;;;;;;10.95;8.18;;;;;;;17.06;72.40;100649.94;1723085;82;21256;-56
2022/07/16 03:46:12;;;;;;;10.65;9.00;;;;;;;17.10;72.52;100659.50;1723022;82;21234;-56
2022/07/16 03:49:16;;;;;;;13.90;8.78;;;;;;;17.14;72.61;100655.27;1722969;82;21241;-56
2022/07/16 03:52:22;;;;;;;12.10;9.73;;;;;;;17.19;72.68;100670.16;1708495;83;21231;-55
2022/07/16 03:55:29;;;;;;;9.40;8.50;;;;;;;17.24;72.69;100675.05;1724575;83;21748;-55
2022/07/16 03:58:36;;;;;;;14.28;9.63;;;;;;;17.27;72.71;100671.85;1724828;83;21190;-54
2022/07/16 04:01:42;;;;;;;12.05;9.50;;;;;;;17.27;72.69;100671.33;1723623;83;21202;-55
2022/07/16 04:04:50;;;;;;;11.73;8.93;;;;;;;17.28;72.76;100672.20;1717816;83;21617;-55
2022/07/16 04:07:57;;;;;;;12.28;9.60;;;;;;;17.31;72.78;100664.33;1709659;83;21277;-57
2022/07/16 04:11:04;;;;;;;10.90;9.23;;;;;;;17.35;72.91;100672.51;1697053;83;21293;-56
2022/07/16 04:14:12;;;;;;;10.88;8.75;;;;;;;17.37;72.89;100677.83;1711652;83;21727;-56
2022/07/16 04:17:20;;;;;;;11.65;9.23;;;;;;;17.41;72.98;100680.51;1715597;83;21762;-56
2022/07/16 04:20:26;;;;;;;9.88;8.70;;;;;;;17.46;73.06;100684.87;1715511;83;21212;-56
2022/07/16 04:23:32;;;;;;;11.80;8.83;;;;;;;17.51;73.04;100685.09;1716566;83;21208;-55
2022/07/16 04:26:38;;;;;;;12.47;8.68;;;;;;;17.56;73.08;100691.71;1716371;83;21263;-55
2022/07/16 04:29:45;;;;;;;8.85;7.90;;;;;;;17.53;72.95;100685.75;1710789;83;21294;-56
2022/07/16 04:32:53;;;;;;;11.55;8.10;;;;;;;17.50;72.99;100684.27;1706770;84;21236;-55
2022/07/16 04:36:02;;;;;;;9.00;7.35;;;;;;;17.45;73.01;100690.11;1703808;84;21184;-55
2022/07/16 04:39:12;;;;;;;12.15;7.95;;;;;;;17.44;73.10;100692.02;1703772;84;21221;-56
2022/07/16 04:42:25;;;;;;;11.97;7.73;;;;;;;17.47;73.22;100695.73;1704015;84;21303;-56
2022/07/16 04:45:31;;;;;;;9.53;7.25;;;;;;;17.58;73.35;100694.27;1703548;84;21292;-56
2022/07/16 04:48:40;;;;;;;10.53;7.75;;;;;;;17.66;73.38;100703.74;1703539;84;21271;-55
2022/07/16 04:51:52;;;;;;;9.28;7.25;;;;;;;17.66;73.33;100707.90;1703348;84;21323;-57
2022/07/16 04:54:59;;;;;;;8.88;6.75;;;;;;;17.66;73.37;100703.74;1703685;84;21229;-56
2022/07/16 04:58:05;;;;;;;11.40;6.65;;;;;;;17.72;73.48;100704.27;1703551;84;21279;-56
2022/07/16 05:01:16;;;;;;;11.10;7.28;;;;;;;17.83;73.55;100699.46;1703943;84;21236;-55
2022/07/16 05:04:25;;;;;;;9.13;7.12;;;;;;;17.92;73.59;100710.63;1703886;84;21209;-55
2022/07/16 05:07:33;;;;;;;9.48;6.65;;;;;;;17.98;73.57;100709.79;1703693;84;21284;-56
2022/07/16 05:10:41;;;;;;;9.13;7.45;;;;;;;18.05;73.62;100703.68;1703531;84;21223;-57
2022/07/16 05:13:48;;;;;;;11.18;5.80;;;;;;;18.18;73.70;100709.20;1703762;84;21169;-56
2022/07/16 05:16:56;;;;;;;8.18;6.00;;;;;;;18.28;73.74;100701.30;1703394;84;21256;-56
2022/07/16 05:20:04;;;;;;;7.37;5.78;;;;;;;18.38;73.75;100711.41;1703574;84;21216;-55
2022/07/16 05:23:12;;;;;;;7.37;6.65;;;;;;;18.49;73.81;100716.27;1703475;84;21292;-53
2022/07/16 05:26:21;;;;;;;9.15;5.92;;;;;;;18.57;73.81;100717.41;1703801;84;21354;-55
2022/07/16 05:29:29;;;;;;;7.53;6.33;;;;;;;18.65;73.76;100719.08;1703888;84;21204;-56
2022/07/16 05:32:38;;;;;;;7.20;5.78;;;;;;;18.71;73.68;100719.61;1725059;81;21219;-55
2022/07/16 05:35:46;;;;;;;8.08;5.72;;;;;;;18.76;73.61;100719.25;1713307;81;21811;-56
2022/07/16 05:38:54;;;;;;;8.53;5.55;;;;;;;18.84;73.64;100713.45;1697111;84;21200;-55
2022/07/16 05:42:08;;;;;;;6.80;5.42;;;;;;;18.95;73.77;100725.23;1697597;84;21286;-55
2022/07/16 05:45:17;;;;;;;8.53;5.33;;;;;;;19.05;73.75;100723.36;1697521;84;21752;-55
2022/07/16 05:48:27;;;;;;;8.73;5.70;;;;;;;19.13;73.71;100718.94;1697813;84;21219;-57
2022/07/16 05:51:41;;;;;;;7.15;5.35;;;;;;;19.22;73.69;100712.90;1671552;84;21247;-55
2022/07/16 05:54:50;;;;;;;6.95;5.80;;;;;;;19.34;73.71;100714.45;1697190;84;21361;-55
2022/07/16 05:57:58;;;;;;;7.87;5.20;;;;;;;19.42;73.65;100716.10;1697346;84;21345;-55
2022/07/16 06:01:09;;;;;;;9.35;5.20;;;;;;;19.49;73.74;100716.92;1697715;84;21223;-56
2022/07/16 06:04:17;;;;;;;7.87;4.50;;;;;;;19.61;73.79;100719.27;1697253;84;21247;-57
2022/07/16 06:07:25;;;;;;;5.75;3.90;;;;;;;19.69;73.70;100714.29;1697730;84;21251;-55
2022/07/16 06:10:33;;;;;;;5.35;3.45;;;;;;;19.78;73.65;100717.09;1697794;84;21235;-54
2022/07/16 06:13:51;;;;;;;9.20;3.90;;;;;;;19.88;73.54;100716.05;1698718;83;21792;-55
2022/07/16 06:16:57;;;;;;;5.00;3.20;;;;;;;19.98;73.50;100712.73;1697723;83;21380;-56
2022/07/16 06:20:06;;;;;;;6.72;3.50;;;;;;;20.05;73.35;100711.59;1697823;84;21747;-54
2022/07/16 06:23:12;;;;;;;8.10;3.10;;;;;;;20.09;73.21;100716.98;1697162;84;21215;-54
2022/07/16 06:26:23;;;;;;;4.15;3.10;;;;;;;20.13;73.10;100718.77;1717437;83;21221;-54
2022/07/16 06:29:30;;;;;;;4.35;2.75;;;;;;;20.21;73.13;100721.28;1724995;83;21325;-56
2022/07/16 06:32:38;;;;;;;4.08;2.90;;;;;;;20.24;73.00;100720.83;1723599;83;21415;-56
2022/07/16 06:35:47;;;;;;;4.60;3.08;;;;;;;20.31;73.03;100716.05;1725315;83;21333;-56
2022/07/16 06:38:57;;;;;;;3.42;2.60;;;;;;;20.39;72.99;100717.97;1725233;83;21175;-56
2022/07/16 06:42:06;;;;;;;5.10;3.42;;;;;;;20.45;72.89;100721.77;1725331;83;21368;-56
2022/07/16 06:45:16;;;;;;;8.58;3.42;;;;;;;20.48;72.81;100710.17;1719019;83;21226;-57
2022/07/16 06:48:22;;;;;;;4.62;2.95;;;;;;;20.58;72.88;100708.54;1724859;83;21220;-55
2022/07/16 06:51:30;;;;;;;4.78;2.92;;;;;;;20.68;72.90;100706.06;1724987;83;21306;-56
2022/07/16 06:54:39;;;;;;;5.08;3.22;;;;;;;20.77;72.83;100699.66;1725170;83;21182;-57
2022/07/16 06:57:48;;;;;;;4.55;2.80;;;;;;;20.82;72.71;100703.95;1725272;83;21345;-56
2022/07/16 07:00:58;;;;;;;;;;;;;;;20.87;72.65;100699.92;1727846;83;21578;-55
2022/07/16 07:04:07;;;;;;;5.90;3.10;;;;;;;20.94;72.58;100705.41;1724784;83;20220;-56
2022/07/16 07:07:19;;;;;;;5.37;2.62;;;;;;;20.97;72.57;100703.56;1724557;81;21369;-57
2022/07/16 07:10:28;;;;;;;5.67;2.90;;;;;;;21.06;72.63;100704.39;1726870;83;21263;-55
2022/07/16 07:13:44;;;;;;;5.55;2.92;;;;;;;21.11;72.48;100708.72;1726650;83;21755;-57
2022/07/16 07:16:54;;;;;;;8.08;3.05;;;;;;;21.16;72.42;100708.86;1726551;83;21251;-56
2022/07/16 07:20:05;;;;;;;4.20;2.50;;;;;;;21.22;72.37;100710.69;1726223;83;21279;-57
2022/07/16 07:23:12;;;;;;;6.20;2.22;;;;;;;21.36;72.37;100716.93;1726506;83;21784;-57
2022/07/16 07:26:21;;;;;;;3.92;2.62;;;;;;;21.39;72.17;100705.31;1726605;82;21274;-55
2022/07/16 07:29:31;;;;;;;5.70;2.80;;;;;;;21.42;72.03;100714.02;1724851;83;21307;-57
2022/07/16 07:32:38;;;;;;;3.33;2.58;;;;;;;21.46;72.03;100701.86;1710834;83;21404;-56
2022/07/16 07:35:46;;;;;;;5.42;2.62;;;;;;;21.51;71.99;100714.00;1715293;83;21255;-57
2022/07/16 07:38:52;;;;;;;3.62;2.37;;;;;;;21.53;71.87;100706.23;1704868;84;21592;-57
2022/07/16 07:42:02;;;;;;;6.87;2.55;;;;;;;21.56;71.86;100698.81;1689417;84;21756;-57
2022/07/16 07:45:14;;;;;;;3.42;2.42;;;;;;;21.62;71.82;100703.95;1683032;84;21216;-55
2022/07/16 07:48:24;;;;;;;3.42;2.22;;;;;;;21.65;71.71;100702.93;1709443;82;21206;-55
2022/07/16 07:51:31;;;;;;;4.78;2.10;;;;;;;21.71;71.67;100697.78;1697585;84;21578;-56
2022/07/16 07:54:40;;;;;;;5.47;2.20;;;;;;;21.77;71.63;100704.38;1704952;84;21218;-55
2022/07/16 07:57:47;;;;;;;5.12;2.40;;;;;;;21.82;71.50;100700.30;1705732;82;21223;-56
2022/07/16 08:00:56;;;;;;;2.25;1.98;;;;;;;21.89;71.47;100699.12;1687628;84;21295;-56
2022/07/16 08:04:08;;;;;;;3.08;2.05;;;;;;;21.98;71.39;100700.45;1700134;84;21224;-56
2022/07/16 08:07:16;;;;;;;3.30;2.12;;;;;;;22.01;71.22;100699.95;1685054;83;21272;-56
2022/07/16 08:10:27;;;;;;;3.98;2.58;;;;;;;22.08;71.22;100696.52;1698379;84;21252;-57
2022/07/16 08:13:35;;;;;;;3.08;2.00;;;;;;;22.15;71.16;100706.16;1674845;84;21307;-57
2022/07/16 08:16:42;;;;;;;4.62;2.02;;;;;;;22.15;70.95;100698.61;1689342;85;21312;-55
2022/07/16 08:19:53;;;;;;;3.85;2.05;;;;;;;22.19;70.89;100697.59;1690641;85;21590;-55
2022/07/16 08:23:02;;;;;;;3.52;1.80;;;;;;;22.27;70.86;100694.96;1691166;85;21757;-56
2022/07/16 08:26:08;;;;;;;7.37;1.90;;;;;;;22.32;70.70;100695.94;1687474;85;21280;-56
2022/07/16 08:29:16;;;;;;;3.83;2.20;;;;;;;22.35;70.61;100695.45;1679641;84;21244;-55
2022/07/16 08:32:24;;;;;;;2.70;1.87;;;;;;;22.40;70.50;100701.69;1675395;85;21473;-56
2022/07/16 08:35:36;;;;;;;5.37;1.98;;;;;;;22.44;70.45;100681.98;1649125;84;21859;-55
2022/07/16 08:38:43;;;;;;;4.30;2.20;;;;;;;22.49;70.36;100693.23;1653796;86;21600;-56
2022/07/16 08:41:50;;;;;;;4.62;2.10;;;;;;;22.57;70.43;100692.88;1648679;86;21239;-55
2022/07/16 08:44:57;;;;;;;4.08;2.27;;;;;;;22.69;70.41;100689.53;1651038;87;21236;-56
2022/07/16 08:48:09;;;;;;;3.98;2.10;;;;;;;22.75;70.21;100685.74;1652015;86;21207;-55
2022/07/16 08:51:21;;;;;;;;;;;;;;;22.79;70.15;100689.18;1666475;85;21233;-55
2022/07/16 08:54:28;;;;;;;4.50;2.00;;;;;;;22.87;70.05;100686.53;1665291;85;20218;-55
2022/07/16 08:57:38;;;;;;;3.25;1.82;;;;;;;22.97;70.03;100680.63;1703072;82;21293;-55
2022/07/16 09:00:40;;;;;;;2.75;1.55;;;;;;;23.10;69.93;100690.64;1690234;84;21280;-56
2022/07/16 09:03:47;;;;;;;2.65;1.72;;;;;;;23.17;69.79;100689.92;1678442;84;21272;-57
2022/07/16 09:06:57;;;;;;;4.92;1.82;;;;;;;23.21;69.67;100689.73;1699868;84;21220;-55
2022/07/16 09:10:03;;;;;;;4.30;1.40;;;;;;;23.33;69.58;100683.55;1707891;84;21220;-56
2022/07/16 09:13:10;;;;;;;5.00;1.80;;;;;;;23.39;69.36;100685.34;1650919;86;21810;-55
2022/07/16 09:16:12;;;;;;;;;;;;;;;23.41;69.16;100680.35;1652234;86;22284;-55
2022/07/16 09:19:34;;;;;;;2.58;1.45;;;;;;;23.50;69.18;100674.63;1652020;85;20257;-55
2022/07/16 09:22:44;;;;;;;2.87;1.70;;;;;;;23.57;69.07;100677.59;1650644;86;21263;-55
2022/07/16 09:26:08;;;;;;;2.65;1.50;;;;;;;23.60;68.79;100670.63;1638475;87;21284;-57
2022/07/16 09:29:14;;;;;;;3.72;1.92;;;;;;;23.63;68.70;100669.29;1650016;86;21280;-57
2022/07/16 09:32:44;;;;;;;5.17;1.50;;;;;;;23.69;68.62;100666.30;1678924;85;21381;-52
2022/07/16 09:35:52;;;;;;;4.50;1.50;;;;;;;23.77;68.51;100653.86;1671308;82;21275;-56
2022/07/16 09:39:02;;;;;;;3.80;1.60;;;;;;;23.81;68.35;100672.67;1686349;85;21208;-56
2022/07/16 09:42:10;;;;;;;2.00;1.50;;;;;;;23.84;68.15;100666.56;1696638;84;21291;-55
2022/07/16 09:45:26;;;;;;;2.80;1.65;;;;;;;23.88;67.96;100659.34;1674957;84;21259;-56
2022/07/16 09:48:42;;;;;;;2.02;1.55;;;;;;;23.83;67.65;100652.30;1695707;84;21827;-56
2022/07/16 09:51:52;;;;;;;4.15;1.60;;;;;;;23.87;67.69;100653.46;1690951;84;21239;-57
2022/07/16 09:54:57;;;;;;;3.83;1.50;;;;;;;24.03;67.66;100657.36;1662760;86;21275;-55
2022/07/16 09:58:08;;;;;;;4.47;2.37;;;;;;;24.15;67.49;100666.52;1630385;86;21255;-55
2022/07/16 10:01:16;;;;;;;6.03;2.75;;;;;;;24.19;67.32;100653.15;1675876;84;21243;-56
2022/07/16 10:04:26;;;;;;;4.83;2.00;;;;;;;24.33;67.26;100651.66;1661818;86;22142;-54
2022/07/16 10:07:34;;;;;;;2.25;1.62;;;;;;;24.42;67.02;100652.07;1694893;84;21287;-54
2022/07/16 10:10:43;;;;;;;2.33;1.42;;;;;;;24.45;66.82;100655.17;1662786;86;21260;-53
2022/07/16 10:13:56;;;;;;;3.30;1.77;;;;;;;24.51;66.63;100651.90;1685148;84;22299;-54
2022/07/16 10:17:09;;;;;;;2.90;1.60;;;;;;;24.63;66.74;100653.45;1661143;85;21248;-54
2022/07/16 10:20:19;;;;;;;7.55;3.52;;;;;;;24.79;66.67;100649.77;1662202;85;21244;-54
2022/07/16 10:23:36;;;;;;;3.62;1.55;;;;;;;24.98;66.56;100651.66;1677558;84;21316;-54
2022/07/16 10:26:41;;;;;;;3.60;1.82;;;;;;;25.11;66.30;100646.19;1677794;84;21260;-53
2022/07/16 10:29:50;;;;;;;5.30;2.12;;;;;;;25.26;66.13;100644.95;1678205;84;21233;-53
2022/07/16 10:33:16;;;;;;;3.45;1.60;;;;;;;25.45;66.09;100643.48;1677431;84;21412;-53
2022/07/16 10:36:25;;;;;;;4.12;1.65;;;;;;;25.63;65.85;100638.31;1679556;83;21235;-52
2022/07/16 10:39:35;;;;;;;4.30;1.40;;;;;;;25.75;65.50;100645.97;1672067;84;21235;-55
2022/07/16 10:42:42;;;;;;;3.98;1.60;;;;;;;25.78;65.21;100629.17;1687145;84;21307;-54
2022/07/16 10:46:09;;;;;;;4.15;1.70;;;;;;;25.68;64.87;100627.13;1682192;85;21193;-54
2022/07/16 10:49:26;;;;;;;3.25;1.90;;;;;;;25.66;64.72;100631.30;1687675;85;21236;-52
2022/07/16 10:52:48;;;;;;;2.08;1.50;;;;;;;25.57;64.42;100641.33;1713836;83;21235;-53
2022/07/16 10:55:55;;;;;;;3.37;2.10;;;;;;;25.55;64.35;100632.33;1709960;84;21366;-53
2022/07/16 10:59:07;;;;;;;6.35;1.90;;;;;;;25.75;64.38;100632.52;1715535;83;21565;-54
2022/07/16 11:02:14;;;;;;;3.65;1.62;;;;;;;25.71;63.87;100635.55;1687471;84;21229;-53
2022/07/16 11:05:22;;;;;;;3.92;1.80;;;;;;;25.58;63.64;100636.00;1695030;83;21219;-54
2022/07/16 11:08:30;;;;;;;2.92;1.77;;;;;;;25.48;63.54;100629.75;1723296;83;21336;-54
2022/07/16 11:11:47;;;;;;;7.10;2.17;;;;;;;25.42;63.41;100634.20;1721844;81;21224;-54
2022/07/16 11:14:58;;;;;;;5.08;1.92;;;;;;;25.38;63.31;100635.84;1719576;82;21199;-53
2022/07/16 11:18:14;;;;;;;2.30;1.50;;;;;;;25.25;63.07;100630.08;1677430;83;21781;-53
2022/07/16 11:21:15;;;;;;;1.62;1.47;;;;;;;25.25;63.18;100634.28;1676814;84;21761;-54
2022/07/16 11:24:24;;;;;;;4.72;1.72;;;;;;;25.45;63.18;100630.87;1694460;84;21787;-53
2022/07/16 11:27:45;;;;;;;6.12;1.85;;;;;;;25.75;63.14;100624.10;1698299;84;21274;-54
2022/07/16 11:31:09;;;;;;;4.83;1.70;;;;;;;25.89;62.82;100617.76;1697921;84;21414;-55
2022/07/16 11:34:18;;;;;;;9.10;1.80;;;;;;;25.88;62.40;100622.20;1658367;85;21630;-55
2022/07/16 11:37:23;;;;;;;11.33;2.87;;;;;;;25.71;62.10;100614.52;1683757;84;21789;-56
2022/07/16 11:40:28;;;;;;;3.02;1.95;;;;;;;25.60;61.97;100624.83;1658172;85;21212;-56
2022/07/16 11:43:36;;;;;;;6.70;1.85;;;;;;;25.57;61.99;100621.70;1650600;86;21252;-55
2022/07/16 11:46:56;;;;;;;4.08;1.92;;;;;;;25.62;62.05;100614.73;1645074;87;21263;-55
2022/07/16 11:50:04;;;;;;;4.05;1.47;;;;;;;25.69;61.85;100620.98;1647066;86;21215;-56
2022/07/16 11:53:19;;;;;;;;;;;;;;;25.67;61.61;100607.77;1680425;85;21305;-56
2022/07/16 11:56:40;;;;;;;4.12;2.22;;;;;;;25.66;61.48;100618.13;1677484;85;20574;-56
2022/07/16 11:59:52;;;;;;;3.10;1.87;;;;;;;25.62;61.38;100614.19;1677957;85;21343;-56
2022/07/16 12:03:03;;;;;;;2.92;1.60;;;;;;;25.63;61.24;100615.88;1677778;85;21264;-55
2022/07/16 12:06:14;;;;;;;7.42;2.10;;;;;;;25.74;61.28;100612.03;1677856;85;21255;-55
2022/07/16 12:09:23;;;;;;;3.33;1.70;;;;;;;25.84;61.08;100614.06;1677080;85;21753;-56
2022/07/16 12:12:36;;;;;;;2.90;1.67;;;;;;;25.91;60.78;100610.47;1677261;85;21860;-56
2022/07/16 12:16:03;;;;;;;3.45;1.70;;;;;;;25.82;60.57;100612.07;1678029;85;21212;-56
2022/07/16 12:19:16;;;;;;;4.03;1.67;;;;;;;25.82;60.44;100607.87;1677400;85;21228;-56
2022/07/16 12:22:22;;;;;;;2.58;1.57;;;;;;;25.79;60.30;100606.46;1677041;85;21327;-56
2022/07/16 12:25:42;;;;;;;4.50;1.45;;;;;;;25.76;60.07;100610.35;1677175;85;21240;-56
2022/07/16 12:28:51;;;;;;;2.45;1.70;;;;;;;25.77;60.01;100610.63;1676422;85;21241;-55
2022/07/16 12:31:57;;;;;;;2.65;1.62;;;;;;;25.74;59.85;100609.77;1662161;85;21267;-55
2022/07/16 12:35:06;;;;;;;4.37;1.90;;;;;;;25.71;59.74;100600.49;1668699;84;21340;-56
2022/07/16 12:38:16;;;;;;;4.10;1.87;;;;;;;25.82;59.77;100607.87;1691840;82;23337;-55
2022/07/16 12:41:33;;;;;;;7.75;2.20;;;;;;;25.82;59.55;100607.87;1741736;81;21355;-56
2022/07/16 12:44:42;;;;;;;2.27;1.62;;;;;;;25.85;59.42;100605.92;1756619;81;21336;-54
2022/07/16 12:47:50;;;;;;;3.75;2.05;;;;;;;26.01;59.39;100610.00;1738229;81;21307;-57
2022/07/16 12:50:58;;;;;;;2.25;1.57;;;;;;;26.18;59.22;100606.44;1753496;81;21197;-56
2022/07/16 12:54:11;;;;;;;4.30;1.70;;;;;;;26.31;59.15;100605.10;1757073;81;21350;-56
2022/07/16 13:00:44;;;;;;;3.80;2.37;;;;;;;26.65;58.78;100611.18;1747624;81;21199;-56
2022/07/16 13:03:53;;;;;;;2.77;1.80;;;;;;;26.64;58.52;100612.28;1714692;83;21213;-56
2022/07/16 13:07:03;;;;;;;6.30;1.90;;;;;;;26.64;58.31;100610.33;1722734;82;21314;-55
2022/07/16 13:10:09;;;;;;;6.45;1.90;;;;;;;26.57;58.18;100611.13;1706633;83;21315;-56
2022/07/16 13:13:24;;;;;;;4.05;1.70;;;;;;;26.56;58.14;100603.80;1716412;83;21227;-55
2022/07/16 13:16:31;;;;;;;2.77;2.02;;;;;;;26.61;57.97;100605.23;1716434;83;21236;-55
2022/07/16 13:19:38;;;;;;;2.40;1.70;;;;;;;26.60;57.83;100606.36;1716489;83;21212;-55
2022/07/16 13:22:49;;;;;;;4.00;1.77;;;;;;;26.62;57.78;100606.94;1716570;83;21275;-55
2022/07/16 13:25:59;;;;;;;2.45;1.70;;;;;;;26.70;57.70;100608.39;1716512;83;21354;-57
2022/07/16 13:29:12;;;;;;;3.17;1.70;;;;;;;26.73;57.47;100614.86;1716318;83;21394;-56
2022/07/16 13:32:23;;;;;;;3.75;1.60;;;;;;;26.74;57.34;100608.96;1722342;83;21745;-55
2022/07/16 13:35:33;;;;;;;2.62;1.70;;;;;;;26.77;57.17;100605.60;1724218;82;21223;-55
2022/07/16 13:38:39;;;;;;;3.62;2.08;;;;;;;26.91;57.03;100615.19;1711159;81;21247;-55
2022/07/16 13:41:49;;;;;;;3.42;1.80;;;;;;;27.12;56.69;100608.49;1717953;82;21298;-55
2022/07/16 13:44:56;;;;;;;2.17;1.57;;;;;;;27.25;56.51;100612.17;1700548;84;21276;-56
2022/07/16 13:48:03;;;;;;;4.15;1.70;;;;;;;27.36;56.25;100606.87;1714549;83;21295;-56
2022/07/16 13:51:13;;;;;;;2.50;1.80;;;;;;;27.33;55.99;100610.25;1699763;82;21626;-56
2022/07/16 13:54:29;;;;;;;2.80;1.85;;;;;;;27.22;55.66;100604.85;1717436;81;21716;-55
2022/07/16 14:01:06;;;;;;;2.70;1.47;;;;;;;26.99;55.48;100614.64;1727886;82;21922;-56
2022/07/16 14:04:18;;;;;;;2.55;1.55;;;;;;;27.03;55.43;100603.14;1721688;82;21167;-56
2022/07/16 14:07:25;;;;;;;2.85;1.75;;;;;;;27.17;55.37;100604.84;1701271;83;21323;-57
2022/07/16 14:10:34;;;;;;;4.53;1.50;;;;;;;27.20;55.11;100611.30;1721392;82;21213;-56
2022/07/16 14:13:39;;;;;;;5.45;1.87;;;;;;;27.17;54.78;100616.09;1730412;82;21212;-55
2022/07/16 14:16:47;;;;;;;4.42;1.50;;;;;;;27.05;54.57;100621.96;1738159;82;21368;-56
2022/07/16 14:19:55;;;;;;;3.20;1.70;;;;;;;26.87;54.36;100614.06;1746432;81;21348;-56
2022/07/16 14:23:05;;;;;;;4.58;1.80;;;;;;;26.68;54.35;100610.63;1728178;82;21215;-56
2022/07/16 14:26:10;;;;;;;1.77;1.42;;;;;;;26.59;54.32;100602.42;1728014;83;21360;-56
2022/07/16 14:29:20;;;;;;;1.85;1.30;;;;;;;26.53;54.22;100609.97;1746664;81;21513;-56
2022/07/16 14:32:28;;;;;;;3.58;1.62;;;;;;;26.62;54.15;100604.13;1726370;81;21227;-56
2022/07/16 14:35:37;;;;;;;2.47;1.65;;;;;;;26.78;54.06;100606.45;1691655;85;21267;-57
2022/07/16 14:38:42;;;;;;;1.90;1.27;;;;;;;26.84;53.83;100607.60;1709386;83;21220;-57
2022/07/16 14:41:51;;;;;;;3.70;1.47;;;;;;;26.89;53.67;100608.17;1724093;82;21280;-56
2022/07/16 14:44:59;;;;;;;2.30;1.45;;;;;;;26.85;53.39;100603.66;1715489;83;21166;-56